KPSP/PSP METAR and TAF weather

Enter ICAO airport designator
Station Type Date Time Source
KPSP METAR 2020/07/10 21:53 UTC NOAA

KPSP 102153Z 13009KT 10SM CLR 43/02 A2988 RMK AO2 SLP114 T04330017


Station Type Date Time Source
KPSP Decoded METAR 2020/07/10 21:53 UTC NOAA

PALM SPRINGS REGIONAL AIRPORT , CA, United States (KPSP) 33-50N 116-30W 135M
Jul 10, 2020 - 05:53 PM EDT / 2020.07.10 2153 UTC
Wind: from the SE (130 degrees) at 10 MPH (9 KT):0
Visibility: 10 mile(s):0
Sky conditions: clear
Temperature: 109.9 F (43.3 C)
Dew Point: 35.1 F (1.7 C)
Relative Humidity: 7%
Pressure (altimeter): 29.88 in. Hg (1011 hPa)
ob: KPSP 102153Z 13009KT 10SM CLR 43/02 A2988 RMK AO2 SLP114 T04330017
cycle: 22

Station Type Date Time Source
KPSP TAF 2020/07/10 18:40 UTC NOAA

TAF KPSP 101738Z 1018/1118 VRB04KT P6SM FEW150
FM101900 11008KT P6SM SCT150
FM110200 33008KT P6SM SCT150
FM110600 VRB05KT P6SM BKN250

Example: see airport list